Time;durP1;ratioP1;P1;durP2;ratioP2;P2;SDS_P1;SDS_P2;PMS_P1;PMS_P2;Temp;Humidity;BMP_temperature;BMP_pressure;BME280_temperature;BME280_humidity;BME280_pressure;Samples;Min_cycle;Max_cycle;Signal;HPM_P1;HPM_P2
2022/05/09 00:01:15;;;;;;;4.50;3.75;;;13.70;95.80;;;;;;5108062;28;20207;-78
2022/05/09 00:03:44;;;;;;;7.57;4.03;;;13.60;95.90;;;;;;5112139;28;20216;-77
2022/05/09 00:06:13;;;;;;;5.72;3.88;;;13.60;96.30;;;;;;5111535;28;20219;-77
2022/05/09 00:08:49;;;;;;;5.60;3.85;;;13.50;96.40;;;;;;5112232;28;20196;-78
2022/05/09 00:11:17;;;;;;;5.90;3.72;;;13.50;96.20;;;;;;5111571;28;20204;-76
2022/05/09 00:13:45;;;;;;;6.60;3.78;;;13.40;96.20;;;;;;5112936;28;20207;-77
2022/05/09 00:16:13;;;;;;;4.75;3.97;;;13.40;96.40;;;;;;5110734;28;20223;-77
2022/05/09 00:18:40;;;;;;;4.85;3.63;;;13.50;96.00;;;;;;5105929;28;20287;-76
2022/05/09 00:24:36;;;;;;;7.68;4.32;;;13.60;95.80;;;;;;5125164;27;20188;-78
2022/05/09 00:27:04;;;;;;;5.15;4.13;;;13.70;95.20;;;;;;5119044;27;20216;-77
2022/05/09 00:29:31;;;;;;;6.85;3.88;;;13.70;94.90;;;;;;5112946;28;20662;-77
2022/05/09 00:32:00;;;;;;;7.60;4.15;;;13.50;95.50;;;;;;5111382;28;20207;-77
2022/05/09 00:34:27;;;;;;;6.85;4.22;;;13.50;95.60;;;;;;5110331;28;20208;-77
2022/05/09 00:36:55;;;;;;;6.82;4.10;;;13.50;95.50;;;;;;5112679;28;20220;-77
2022/05/09 00:39:24;;;;;;;6.60;4.45;;;13.50;95.30;;;;;;5112147;28;20212;-77
2022/05/09 00:41:52;;;;;;;5.68;4.05;;;13.00;96.30;;;;;;5111619;28;20215;-77
2022/05/09 00:44:22;;;;;;;8.05;4.25;;;13.10;96.70;;;;;;5108341;28;20199;-76
2022/05/09 00:46:53;;;;;;;6.82;3.88;;;13.10;96.50;;;;;;5110093;28;20212;-76
2022/05/09 00:49:24;;;;;;;7.15;4.43;;;13.10;96.80;;;;;;5107047;28;20207;-76
2022/05/09 00:51:57;;;;;;;8.15;4.60;;;13.00;96.70;;;;;;5110652;28;20220;-79
2022/05/09 00:54:31;;;;;;;5.13;4.18;;;12.90;97.20;;;;;;5107962;28;20195;-76
2022/05/09 00:57:06;;;;;;;5.88;3.95;;;12.90;97.30;;;;;;5104026;28;20216;-77
2022/05/09 00:59:36;;;;;;;6.90;4.20;;;12.60;98.20;;;;;;5125102;27;20200;-78
2022/05/09 01:02:05;;;;;;;5.30;3.78;;;12.70;98.50;;;;;;5109902;28;20192;-77
2022/05/09 01:04:41;;;;;;;6.95;4.30;;;12.70;98.50;;;;;;5121237;27;20207;-76
2022/05/09 01:07:09;;;;;;;5.07;4.20;;;12.70;98.20;;;;;;5112182;28;20223;-77
2022/05/09 01:09:36;;;;;;;8.05;4.57;;;12.60;98.30;;;;;;5112654;28;20203;-77
2022/05/09 01:12:09;;;;;;;5.53;3.97;;;12.50;98.60;;;;;;5106619;28;20196;-76
2022/05/09 01:14:39;;;;;;;5.22;3.70;;;12.30;99.20;;;;;;5107979;28;20185;-77
2022/05/09 01:17:07;;;;;;;5.82;4.35;;;12.40;99.70;;;;;;5109573;28;20235;-77
2022/05/09 01:19:36;;;;;;;5.13;4.63;;;12.40;99.60;;;;;;5110385;28;20208;-77
2022/05/09 01:22:18;;;;;;;6.10;4.03;;;12.30;99.60;;;;;;5109518;28;20204;-78
2022/05/09 01:24:46;;;;;;;7.55;4.30;;;12.30;99.80;;;;;;5112244;28;20199;-77
2022/05/09 01:27:13;;;;;;;5.65;4.45;;;12.30;99.90;;;;;;5111801;28;20208;-77
2022/05/09 01:29:48;;;;;;;6.05;4.13;;;12.40;99.90;;;;;;5101256;28;20197;-78
2022/05/09 01:32:18;;;;;;;6.65;4.50;;;12.40;99.60;;;;;;5109923;28;20541;-76
2022/05/09 01:34:50;;;;;;;5.13;4.28;;;12.40;99.70;;;;;;5110418;28;20653;-76
2022/05/09 01:37:20;;;;;;;5.90;4.60;;;12.30;99.70;;;;;;5109578;28;20223;-78
2022/05/09 01:39:48;;;;;;;9.93;4.80;;;12.30;99.90;;;;;;5111069;28;20192;-77
2022/05/09 01:42:35;;;;;;;6.30;4.22;;;12.30;99.40;;;;;;5108076;28;20216;-76
2022/05/09 01:45:03;;;;;;;7.78;4.22;;;12.50;98.60;;;;;;5109550;28;20200;-76
2022/05/09 01:50:23;;;;;;;4.95;4.10;;;12.60;98.20;;;;;;5124905;27;20196;-77
2022/05/09 01:52:51;;;;;;;5.78;4.40;;;12.50;98.20;;;;;;5111197;28;20650;-77
2022/05/09 01:55:20;;;;;;;6.03;4.50;;;12.60;98.10;;;;;;5104816;28;20197;-77
2022/05/09 01:57:49;;;;;;;5.60;4.60;;;12.50;98.10;;;;;;5109458;28;20212;-76
2022/05/09 02:00:17;;;;;;;7.45;4.22;;;12.50;98.40;;;;;;5107548;28;20207;-77
2022/05/09 02:02:45;;;;;;;7.07;4.07;;;12.30;98.90;;;;;;5107455;28;20205;-77
2022/05/09 02:05:13;;;;;;;8.70;4.50;;;12.20;99.30;;;;;;5105805;28;20215;-77
2022/05/09 02:07:40;;;;;;;5.93;4.57;;;12.40;98.30;;;;;;5106477;28;20239;-76
2022/05/09 02:10:10;;;;;;;7.70;3.97;;;12.30;98.40;;;;;;5109453;28;20200;-76
2022/05/09 02:12:37;;;;;;;9.52;4.75;;;12.20;98.80;;;;;;5119232;27;20201;-76
2022/05/09 02:15:07;;;;;;;8.02;4.55;;;12.20;98.90;;;;;;5101107;27;20282;-79
2022/05/09 02:17:37;;;;;;;6.30;4.03;;;12.30;99.10;;;;;;5106658;28;20263;-76
2022/05/09 02:20:05;;;;;;;10.10;4.30;;;12.10;98.40;;;;;;5106210;28;20201;-78
2022/05/09 02:22:33;;;;;;;7.32;4.28;;;12.10;98.70;;;;;;5108188;28;20686;-81
2022/05/09 02:25:00;;;;;;;9.23;4.28;;;11.90;98.50;;;;;;5106059;28;20192;-77
2022/05/09 02:27:29;;;;;;;6.85;4.30;;;12.00;98.70;;;;;;5110441;28;20219;-77
2022/05/09 02:29:57;;;;;;;6.03;4.40;;;12.00;98.50;;;;;;5107126;28;20197;-78
2022/05/09 02:32:24;;;;;;;7.20;4.68;;;12.10;98.30;;;;;;5107133;28;20196;-76
2022/05/09 02:34:51;;;;;;;8.02;4.75;;;11.90;98.80;;;;;;5127107;27;20219;-77
2022/05/09 02:37:19;;;;;;;7.45;4.38;;;12.10;98.40;;;;;;5109413;28;20227;-77
2022/05/09 02:39:48;;;;;;;7.67;4.57;;;11.90;98.90;;;;;;5105529;28;20193;-77
2022/05/09 02:42:15;;;;;;;7.03;4.88;;;12.00;98.90;;;;;;5109424;28;20211;-76
2022/05/09 02:44:44;;;;;;;6.90;5.22;;;12.40;98.30;;;;;;5111084;28;20669;-76
2022/05/09 02:47:12;;;;;;;5.93;4.07;;;12.20;98.00;;;;;;5107685;28;20216;-82
2022/05/09 02:49:39;;;;;;;9.45;4.65;;;12.20;97.90;;;;;;5104294;28;20685;-76
2022/05/09 02:52:07;;;;;;;8.32;4.30;;;11.60;99.00;;;;;;5110582;28;20184;-77
2022/05/09 02:54:34;;;;;;;7.85;4.47;;;12.00;98.70;;;;;;5103658;28;20554;-77
2022/05/09 02:57:01;;;;;;;10.37;5.07;;;12.20;98.20;;;;;;5105449;28;20227;-80
2022/05/09 02:59:30;;;;;;;8.88;4.38;;;12.10;97.80;;;;;;5109569;28;20188;-77
2022/05/09 03:02:01;;;;;;;8.32;4.38;;;11.70;98.90;;;;;;5111250;28;20696;-77
2022/05/09 03:04:40;;;;;;;6.70;4.33;;;11.70;99.40;;;;;;5107864;28;20188;-76
2022/05/09 03:07:12;;;;;;;6.13;4.10;;;11.60;99.50;;;;;;5106485;28;20192;-77
2022/05/09 03:09:41;;;;;;;7.77;4.60;;;11.40;99.90;;;;;;5106061;28;20208;-78
2022/05/09 03:12:10;;;;;;;7.83;4.40;;;11.50;99.90;;;;;;5106413;28;20215;-77
2022/05/09 03:14:39;;;;;;;7.47;4.60;;;11.70;99.90;;;;;;5104169;28;20201;-78
2022/05/09 03:17:10;;;;;;;9.07;4.87;;;11.60;99.50;;;;;;5108474;28;20217;-76
2022/05/09 03:19:53;;;;;;;9.27;4.33;;;11.60;99.90;;;;;;5105465;28;20192;-77
2022/05/09 03:22:21;;;;;;;7.23;4.63;;;11.70;99.50;;;;;;5121539;27;20197;-76
2022/05/09 03:24:48;;;;;;;7.97;4.47;;;11.60;99.80;;;;;;5110390;28;20200;-77
2022/05/09 03:27:16;;;;;;;6.47;4.27;;;11.60;99.90;;;;;;5108075;28;20211;-77
2022/05/09 03:29:43;;;;;;;7.23;4.60;;;11.10;99.90;;;;;;5108652;28;20662;-76
2022/05/09 03:32:12;;;;;;;7.87;4.40;;;11.40;99.90;;;;;;5106375;28;20216;-77
2022/05/09 03:34:39;;;;;;;6.47;4.70;;;11.20;99.90;;;;;;5109984;28;20545;-76
2022/05/09 03:37:07;;;;;;;9.80;4.40;;;11.20;99.90;;;;;;5108742;28;20212;-78
2022/05/09 03:39:34;;;;;;;7.90;4.27;;;11.30;99.90;;;;;;5109511;28;20680;-76
2022/05/09 03:42:02;;;;;;;8.03;4.63;;;11.30;99.90;;;;;;5109442;28;20200;-78
2022/05/09 03:44:29;;;;;;;7.80;4.10;;;11.40;99.90;;;;;;5107400;28;20630;-76
2022/05/09 03:46:56;;;;;;;8.67;4.70;;;11.10;99.90;;;;;;5105434;28;20213;-76
2022/05/09 03:49:27;;;;;;;8.43;4.37;;;11.10;99.90;;;;;;5106803;28;20200;-77
2022/05/09 03:52:06;;;;;;;7.70;4.90;;;11.00;99.90;;;;;;5107049;28;20200;-76
2022/05/09 03:54:34;;;;;;;8.33;5.13;;;11.10;99.90;;;;;;5106473;28;20202;-77
2022/05/09 03:57:03;;;;;;;9.77;4.60;;;11.10;99.90;;;;;;5106795;28;20282;-80
2022/05/09 03:59:30;;;;;;;8.93;5.20;;;10.90;99.90;;;;;;5106612;28;20208;-77
2022/05/09 04:01:58;;;;;;;12.03;5.23;;;11.10;99.90;;;;;;5103697;28;20623;-77
2022/05/09 04:04:28;;;;;;;7.40;4.93;;;11.20;99.90;;;;;;5109404;28;20193;-76
2022/05/09 04:06:55;;;;;;;6.93;4.30;;;11.20;99.90;;;;;;5108899;28;20223;-77
2022/05/09 04:09:23;;;;;;;7.90;4.77;;;11.30;99.90;;;;;;5110004;28;20189;-76
2022/05/09 04:11:50;;;;;;;7.97;4.70;;;11.20;99.90;;;;;;5109703;28;20188;-76
2022/05/09 04:16:49;;;;;;;7.40;4.80;;;11.10;99.90;;;;;;5106557;28;20282;-77
2022/05/09 04:17:06;;;;;;;7.07;4.57;;;11.10;99.90;;;;;;5117598;27;20216;-77
2022/05/09 04:19:36;;;;;;;9.27;5.43;;;11.10;99.90;;;;;;5106702;28;20201;-77
2022/05/09 04:22:04;;;;;;;8.27;4.80;;;11.10;99.90;;;;;;5107280;28;20185;-81
2022/05/09 04:24:32;;;;;;;8.60;4.50;;;11.10;99.90;;;;;;5104005;28;20196;-77
2022/05/09 04:27:13;;;;;;;7.13;4.90;;;11.20;99.90;;;;;;5110341;28;20216;-76
2022/05/09 04:29:40;;;;;;;10.63;6.10;;;11.40;99.90;;;;;;5124098;28;20561;-77
2022/05/09 04:32:08;;;;;;;12.67;6.40;;;11.40;99.90;;;;;;5110608;28;20200;-77
2022/05/09 04:34:37;;;;;;;6.80;5.30;;;11.30;99.90;;;;;;5109900;28;20215;-78
2022/05/09 04:37:05;;;;;;;9.70;5.13;;;11.40;99.90;;;;;;5109711;28;20215;-81
2022/05/09 04:39:33;;;;;;;7.73;4.97;;;11.40;99.90;;;;;;5102248;28;20571;-77
2022/05/09 04:42:00;;;;;;;9.47;5.37;;;11.30;99.90;;;;;;5107535;28;20192;-77
2022/05/09 04:44:28;;;;;;;7.80;4.67;;;11.20;99.90;;;;;;5112735;28;20192;-77
2022/05/09 04:46:56;;;;;;;7.40;5.47;;;11.20;99.90;;;;;;5110084;28;20220;-77
2022/05/09 04:49:23;;;;;;;10.40;6.03;;;11.30;99.90;;;;;;5105393;27;20192;-76
2022/05/09 04:51:52;;;;;;;10.87;5.40;;;11.40;99.90;;;;;;5111156;28;20184;-77
2022/05/09 04:54:19;;;;;;;9.50;5.67;;;11.30;99.90;;;;;;5112714;28;20192;-77
2022/05/09 04:56:48;;;;;;;9.67;5.27;;;11.30;99.90;;;;;;5110946;28;20737;-77
2022/05/09 04:59:16;;;;;;;10.40;5.43;;;11.40;99.90;;;;;;5105334;28;20200;-77
2022/05/09 05:01:44;;;;;;;8.83;5.40;;;11.60;99.90;;;;;;5111281;28;20200;-78
2022/05/09 05:04:11;;;;;;;7.70;5.77;;;11.60;99.90;;;;;;5110190;28;20205;-78
2022/05/09 05:06:38;;;;;;;17.60;5.73;;;11.60;99.90;;;;;;5110769;28;20220;-78
2022/05/09 05:09:07;;;;;;;7.87;5.33;;;11.60;99.90;;;;;;5124928;27;20204;-77
2022/05/09 05:11:37;;;;;;;9.97;5.73;;;11.70;99.90;;;;;;5111884;28;20672;-77
2022/05/09 05:19:22;;;;;;;7.73;5.10;;;12.40;99.90;;;;;;5066259;28;20558;-79
2022/05/09 05:21:50;;;;;;;8.27;5.28;;;12.60;99.90;;;;;;5052429;28;20671;-79
2022/05/09 05:24:19;;;;;;;9.57;5.43;;;12.60;99.10;;;;;;5055048;28;20205;-79
2022/05/09 05:26:46;;;;;;;8.60;5.25;;;12.60;99.30;;;;;;5055216;28;20201;-79
2022/05/09 05:29:15;;;;;;;10.82;6.10;;;12.60;99.40;;;;;;5064029;28;20191;-80
2022/05/09 05:31:43;;;;;;;12.23;5.63;;;12.40;99.60;;;;;;5072027;28;20205;-79
2022/05/09 05:34:10;;;;;;;11.40;5.75;;;12.50;99.60;;;;;;5064107;28;20201;-79
2022/05/09 05:36:38;;;;;;;9.83;5.43;;;12.60;99.30;;;;;;5068804;28;20701;-78
2022/05/09 05:39:07;;;;;;;9.80;5.88;;;12.70;99.40;;;;;;5069162;28;20214;-79
2022/05/09 05:41:36;;;;;;;12.73;6.30;;;12.70;99.50;;;;;;5054645;28;20194;-78
2022/05/09 05:44:11;;;;;;;8.48;5.63;;;12.70;99.40;;;;;;5070525;28;20193;-77
2022/05/09 05:46:42;;;;;;;7.13;5.88;;;12.60;99.50;;;;;;5055865;28;20193;-77
2022/05/09 05:49:12;;;;;;;8.35;5.78;;;12.70;99.90;;;;;;5068161;28;20185;-77
2022/05/09 05:51:41;;;;;;;10.77;6.03;;;12.80;99.60;;;;;;5053074;28;20669;-78
2022/05/09 05:54:09;;;;;;;10.45;6.10;;;12.70;99.90;;;;;;5052762;28;20209;-78
2022/05/09 05:56:38;;;;;;;11.10;5.90;;;12.90;99.90;;;;;;5063678;28;20195;-77
2022/05/09 05:59:05;;;;;;;8.30;6.15;;;13.10;99.70;;;;;;5075606;28;20214;-78
2022/05/09 06:01:33;;;;;;;10.70;7.15;;;13.20;99.70;;;;;;5070116;28;20217;-79
2022/05/09 06:04:01;;;;;;;9.40;7.45;;;13.30;99.40;;;;;;5051849;28;20213;-80
2022/05/09 06:06:31;;;;;;;15.25;7.35;;;13.60;98.90;;;;;;5069293;28;20204;-80
2022/05/09 06:08:58;;;;;;;14.52;6.72;;;13.40;98.60;;;;;;5065063;28;20305;-79
2022/05/09 06:11:26;;;;;;;8.60;5.57;;;13.90;97.30;;;;;;5053254;28;20204;-79
2022/05/09 06:13:56;;;;;;;8.45;6.60;;;14.20;98.10;;;;;;5066071;28;20190;-78
2022/05/09 06:16:25;;;;;;;8.38;6.22;;;14.20;97.10;;;;;;5053524;28;20220;-79
2022/05/09 06:18:53;;;;;;;10.63;6.55;;;14.00;97.80;;;;;;5051112;28;20226;-79
2022/05/09 06:21:21;;;;;;;10.32;6.65;;;14.00;96.80;;;;;;5060972;28;20203;-78
2022/05/09 06:23:49;;;;;;;9.30;5.95;;;13.90;97.30;;;;;;5062502;28;20202;-79
2022/05/09 06:26:17;;;;;;;9.65;5.90;;;14.20;97.10;;;;;;5063628;28;20229;-79
2022/05/09 06:28:52;;;;;;;11.57;7.05;;;14.40;97.50;;;;;;5049418;28;20208;-80
2022/05/09 06:31:21;;;;;;;10.07;6.93;;;14.40;96.60;;;;;;5063314;28;20534;-82
2022/05/09 06:33:48;;;;;;;9.88;7.40;;;14.30;97.20;;;;;;5051251;28;20206;-79
2022/05/09 06:36:16;;;;;;;10.05;7.18;;;14.30;97.20;;;;;;5071022;28;20221;-79
2022/05/09 06:38:45;;;;;;;8.85;6.75;;;14.30;97.10;;;;;;5049694;28;20690;-80
2022/05/09 06:41:13;;;;;;;9.40;6.95;;;14.40;96.90;;;;;;5067480;28;20686;-79
2022/05/09 06:43:42;;;;;;;10.48;6.90;;;14.50;97.40;;;;;;5054469;28;20204;-79
2022/05/09 06:46:10;;;;;;;9.50;7.53;;;14.50;96.60;;;;;;5069031;28;20218;-79
2022/05/09 06:48:39;;;;;;;8.80;6.15;;;14.60;96.60;;;;;;5058082;28;20203;-80
2022/05/09 06:51:06;;;;;;;10.98;7.15;;;14.80;96.60;;;;;;5053427;28;20199;-79
2022/05/09 06:53:34;;;;;;;12.80;7.28;;;14.80;96.60;;;;;;5055007;28;20238;-79
2022/05/09 06:56:02;;;;;;;9.27;6.50;;;14.80;96.60;;;;;;5071622;28;20232;-80
2022/05/09 06:58:31;;;;;;;8.75;6.28;;;14.90;96.50;;;;;;5054539;28;20217;-79
2022/05/09 07:00:59;;;;;;;8.68;5.97;;;15.00;95.40;;;;;;5071260;28;20202;-79
2022/05/09 07:03:27;;;;;;;13.00;6.57;;;15.00;96.20;;;;;;5055090;28;20559;-79
2022/05/09 07:05:56;;;;;;;10.55;6.18;;;15.10;96.50;;;;;;5054711;28;20221;-80
2022/05/09 07:08:29;;;;;;;9.55;5.85;;;15.10;95.80;;;;;;5054582;28;20196;-80
2022/05/09 07:10:58;;;;;;;10.43;6.53;;;15.30;95.70;;;;;;5068737;28;20212;-80
2022/05/09 07:13:26;;;;;;;9.68;5.80;;;15.30;95.40;;;;;;5071151;28;20198;-80
2022/05/09 07:15:57;;;;;;;8.88;5.88;;;15.40;95.20;;;;;;5054908;28;20221;-80
2022/05/09 07:18:27;;;;;;;11.20;6.03;;;15.60;94.80;;;;;;5070063;28;20651;-81
2022/05/09 07:20:56;;;;;;;10.02;5.45;;;15.60;94.60;;;;;;5068315;28;20202;-79
2022/05/09 07:23:24;;;;;;;10.40;5.93;;;15.60;95.10;;;;;;5048875;28;20209;-81
2022/05/09 07:25:55;;;;;;;10.30;5.53;;;15.70;95.20;;;;;;5063635;28;20237;-80
2022/05/09 07:28:22;;;;;;;6.75;5.70;;;15.80;95.30;;;;;;5052291;28;20194;-80
2022/05/09 07:30:50;;;;;;;7.97;5.88;;;15.90;95.40;;;;;;5070906;28;20202;-80
2022/05/09 07:33:20;;;;;;;10.30;6.07;;;15.80;95.00;;;;;;5054857;28;20194;-80
2022/05/09 07:35:48;;;;;;;9.05;6.03;;;15.90;95.50;;;;;;5056069;28;20221;-80
2022/05/09 07:38:18;;;;;;;9.43;5.38;;;16.10;95.60;;;;;;5056423;28;20206;-80
2022/05/09 07:40:46;;;;;;;8.48;5.53;;;16.20;95.40;;;;;;5055498;28;20201;-80
2022/05/09 07:43:17;;;;;;;9.40;5.90;;;16.30;95.40;;;;;;5072743;28;20580;-80
2022/05/09 07:45:46;;;;;;;9.52;5.78;;;16.40;95.50;;;;;;5072249;28;20221;-80
2022/05/09 07:48:14;;;;;;;8.38;5.78;;;16.40;95.40;;;;;;5071700;28;20193;-80
2022/05/09 07:50:42;;;;;;;12.95;5.80;;;16.50;95.80;;;;;;5054737;28;20202;-80
2022/05/09 07:53:12;;;;;;;10.73;5.50;;;16.70;95.90;;;;;;5054901;28;20216;-80
2022/05/09 07:55:43;;;;;;;10.23;5.80;;;16.90;96.00;;;;;;5071975;28;20224;-80
2022/05/09 07:58:14;;;;;;;8.30;5.13;;;17.10;95.20;;;;;;5072713;28;20190;-80
2022/05/09 08:00:43;;;;;;;10.98;5.65;;;17.10;94.60;;;;;;5073210;28;20186;-80
2022/05/09 08:03:15;;;;;;;9.05;5.53;;;17.10;94.00;;;;;;5073690;28;20201;-80
2022/05/09 08:05:43;;;;;;;10.10;5.68;;;17.10;93.80;;;;;;5072966;28;20216;-80
2022/05/09 08:08:13;;;;;;;10.93;5.80;;;17.30;94.00;;;;;;5054144;28;20202;-81
2022/05/09 08:10:43;;;;;;;9.40;5.60;;;17.40;94.00;;;;;;5054870;28;20651;-79
2022/05/09 08:13:13;;;;;;;10.20;5.50;;;17.40;94.30;;;;;;5060530;28;20655;-79
2022/05/09 08:15:44;;;;;;;5.93;4.93;;;17.50;95.50;;;;;;5072951;28;20233;-79
2022/05/09 08:18:11;;;;;;;10.05;5.47;;;17.60;94.60;;;;;;5079130;28;20193;-79
2022/05/09 08:20:40;;;;;;;7.65;5.70;;;17.60;95.30;;;;;;5075499;28;20213;-79
2022/05/09 08:23:10;;;;;;;7.50;5.72;;;17.40;94.80;;;;;;5059339;28;20198;-79
2022/05/09 08:25:42;;;;;;;7.78;4.82;;;17.60;95.20;;;;;;5058551;28;20217;-79
2022/05/09 08:28:10;;;;;;;10.95;5.90;;;17.60;95.00;;;;;;5073936;28;20209;-79
2022/05/09 08:30:41;;;;;;;9.75;5.50;;;17.80;95.60;;;;;;5059089;28;20194;-79
2022/05/09 08:33:14;;;;;;;8.82;4.82;;;17.80;95.10;;;;;;5061838;28;20201;-79
2022/05/09 08:35:44;;;;;;;7.68;6.00;;;18.00;94.40;;;;;;5057670;28;20717;-79
2022/05/09 08:38:12;;;;;;;8.43;5.80;;;18.10;94.50;;;;;;5058293;28;20201;-79
2022/05/09 08:40:46;;;;;;;7.22;4.72;;;18.10;94.80;;;;;;5074775;28;20214;-79
2022/05/09 08:43:28;;;;;;;9.50;5.38;;;18.10;94.80;;;;;;5058254;28;20204;-79
2022/05/09 08:46:05;;;;;;;9.63;5.13;;;18.20;95.70;;;;;;5060901;28;20585;-79
2022/05/09 08:48:44;;;;;;;8.10;5.45;;;18.40;95.50;;;;;;5057046;28;20639;-81
2022/05/09 08:51:20;;;;;;;6.93;5.68;;;18.50;94.80;;;;;;5063662;28;20546;-79
2022/05/09 08:53:56;;;;;;;10.60;6.32;;;18.40;94.70;;;;;;5086148;28;20700;-79
2022/05/09 08:56:24;;;;;;;7.63;5.25;;;18.50;94.20;;;;;;5058766;28;20556;-78
2022/05/09 08:59:02;;;;;;;10.75;5.78;;;18.50;94.70;;;;;;5057290;28;20201;-79
2022/05/09 09:01:44;;;;;;;6.78;5.22;;;18.60;95.80;;;;;;5069722;28;20665;-79
2022/05/09 09:04:21;;;;;;;7.80;5.25;;;18.60;95.20;;;;;;5091436;28;20560;-79
2022/05/09 09:06:57;;;;;;;10.98;5.22;;;18.60;95.90;;;;;;5073331;28;20198;-79
2022/05/09 09:09:37;;;;;;;7.72;6.13;;;18.90;96.00;;;;;;5058141;28;20205;-79
2022/05/09 09:12:14;;;;;;;8.23;6.10;;;18.90;94.80;;;;;;5057292;28;20549;-80
2022/05/09 09:14:58;;;;;;;8.05;6.25;;;18.90;94.80;;;;;;5053035;28;20225;-78
2022/05/09 09:17:41;;;;;;;7.68;5.90;;;18.90;96.20;;;;;;5071067;28;20197;-79
2022/05/09 09:20:18;;;;;;;8.38;5.63;;;19.00;94.70;;;;;;5066341;28;20551;-79
2022/05/09 09:23:14;;;;;;;7.45;6.00;;;19.10;95.80;;;;;;5056014;28;20197;-79
2022/05/09 09:26:00;;;;;;;8.63;6.40;;;19.20;96.30;;;;;;5062902;28;20222;-79
2022/05/09 09:28:36;;;;;;;7.50;6.43;;;19.30;95.60;;;;;;5068292;28;20189;-79
2022/05/09 09:31:10;;;;;;;8.13;7.00;;;19.20;94.50;;;;;;5048755;28;20200;-78
2022/05/09 09:33:43;;;;;;;7.82;6.45;;;19.00;94.70;;;;;;5055763;28;20196;-79
2022/05/09 09:36:14;;;;;;;9.45;5.93;;;19.10;94.90;;;;;;5066459;28;20217;-79
2022/05/09 09:38:47;;;;;;;8.30;5.80;;;19.30;94.90;;;;;;5050742;28;20204;-78
2022/05/09 09:41:21;;;;;;;9.32;6.53;;;19.40;96.00;;;;;;5049492;28;20220;-78
2022/05/09 09:43:50;;;;;;;10.18;6.78;;;19.50;96.20;;;;;;5049016;28;20202;-78
2022/05/09 09:46:19;;;;;;;6.65;5.95;;;19.60;96.10;;;;;;5061307;28;20221;-78
2022/05/09 09:49:07;;;;;;;7.18;5.82;;;19.60;96.10;;;;;;5065361;28;20202;-79
2022/05/09 09:51:48;;;;;;;10.10;6.82;;;19.70;95.50;;;;;;5065199;28;20579;-78
2022/05/09 09:54:21;;;;;;;9.20;7.13;;;19.80;96.20;;;;;;5067832;28;20201;-78
2022/05/09 09:56:52;;;;;;;9.55;7.00;;;19.70;95.40;;;;;;5060193;28;20212;-78
2022/05/09 09:59:45;;;;;;;9.82;7.30;;;19.70;94.40;;;;;;5067395;28;20213;-79
2022/05/09 10:02:56;;;;;;;11.05;7.20;;;19.80;94.70;;;;;;4973114;28;20216;-79
2022/05/09 10:05:35;;;;;;;12.55;8.00;;;20.00;94.90;;;;;;4991940;28;20686;-78
2022/05/09 10:11:24;;;;;;;9.32;6.53;;;20.10;93.60;;;;;;5063760;28;20194;-78
2022/05/09 10:13:54;;;;;;;9.45;7.10;;;20.20;95.00;;;;;;5064107;28;20210;-78
2022/05/09 10:16:28;;;;;;;10.45;7.20;;;20.30;94.90;;;;;;5046288;28;20746;-81
2022/05/09 10:18:56;;;;;;;7.72;6.97;;;20.30;94.30;;;;;;5044094;28;20202;-79
2022/05/09 10:24:48;;;;;;;11.02;6.72;;;20.30;94.30;;;;;;5001211;28;20215;-79
2022/05/09 10:27:27;;;;;;;8.30;6.50;;;20.50;94.40;;;;;;5004111;28;20195;-80
2022/05/09 10:29:57;;;;;;;8.80;6.57;;;20.70;94.40;;;;;;5045073;28;20206;-78
2022/05/09 10:32:35;;;;;;;8.07;6.53;;;20.90;93.50;;;;;;5060778;28;20213;-79
2022/05/09 10:35:11;;;;;;;9.30;7.07;;;21.20;93.60;;;;;;5063702;28;20721;-83
2022/05/09 10:37:45;;;;;;;11.57;7.05;;;21.30;92.60;;;;;;5047461;28;20196;-76
2022/05/09 10:40:21;;;;;;;8.38;6.63;;;21.40;93.10;;;;;;5058438;28;20209;-79
2022/05/09 10:42:55;;;;;;;11.27;8.25;;;21.20;93.10;;;;;;5062806;28;20193;-79
2022/05/09 10:45:25;;;;;;;9.93;7.07;;;21.00;93.00;;;;;;5042710;28;20222;-81
2022/05/09 10:47:58;;;;;;;7.53;6.82;;;21.00;93.10;;;;;;5062905;28;20208;-76
2022/05/09 10:50:29;;;;;;;8.88;7.18;;;21.20;92.90;;;;;;5061922;28;20200;-77
2022/05/09 10:53:13;;;;;;;8.35;6.93;;;21.20;92.50;;;;;;5046167;28;20205;-77
2022/05/09 10:55:54;;;;;;;10.27;7.13;;;21.30;93.20;;;;;;5052086;28;20579;-76
2022/05/09 10:58:27;;;;;;;10.25;6.53;;;21.40;94.80;;;;;;5050930;28;20748;-79
2022/05/09 11:00:59;;;;;;;12.80;8.30;;;21.70;91.90;;;;;;5050291;28;20237;-80
2022/05/09 11:03:34;;;;;;;8.38;7.30;;;21.30;91.70;;;;;;5051517;28;20201;-78
2022/05/09 11:06:25;;;;;;;8.52;7.15;;;21.70;91.50;;;;;;5061408;28;20705;-79
2022/05/09 11:09:20;;;;;;;9.27;6.00;;;22.00;91.20;;;;;;5059360;28;20197;-79
2022/05/09 11:12:06;;;;;;;7.18;6.47;;;22.20;91.80;;;;;;5065515;28;20204;-77
2022/05/09 11:14:42;;;;;;;7.38;6.63;;;22.20;92.00;;;;;;5065784;28;20233;-78
2022/05/09 11:17:32;;;;;;;7.13;5.82;;;22.00;91.80;;;;;;5062959;28;20678;-79
2022/05/09 11:20:16;;;;;;;8.13;6.85;;;22.00;91.20;;;;;;5063640;28;20209;-80
2022/05/09 11:22:58;;;;;;;9.45;7.75;;;21.80;91.60;;;;;;5062637;28;20186;-77
2022/05/09 11:25:42;;;;;;;7.75;7.03;;;21.50;91.20;;;;;;5066486;28;20220;-76
2022/05/09 11:28:30;;;;;;;7.28;6.22;;;21.90;91.30;;;;;;5048668;28;20205;-76
2022/05/09 11:31:14;;;;;;;19.88;12.88;;;22.00;91.20;;;;;;5059347;28;20194;-77
2022/05/09 11:33:58;;;;;;;9.43;8.32;;;21.80;91.70;;;;;;5038665;28;20198;-76
2022/05/09 11:36:41;;;;;;;14.45;7.40;;;21.80;92.80;;;;;;5060203;28;20222;-76
2022/05/09 11:39:16;;;;;;;13.63;7.05;;;21.70;93.20;;;;;;5061838;28;20213;-77
2022/05/09 11:41:54;;;;;;;7.82;5.97;;;21.70;93.70;;;;;;5061364;28;20217;-76
2022/05/09 11:44:31;;;;;;;9.35;6.63;;;22.20;93.50;;;;;;5059270;28;20212;-76
2022/05/09 11:47:25;;;;;;;8.18;7.20;;;22.60;92.40;;;;;;5057540;28;20201;-78
2022/05/09 11:50:14;;;;;;;7.03;5.25;;;22.80;90.50;;;;;;5059872;28;20182;-76
2022/05/09 11:52:44;;;;;;;6.43;5.78;;;23.00;90.40;;;;;;5055632;28;20561;-76
2022/05/09 11:55:21;;;;;;;7.10;5.15;;;23.10;90.30;;;;;;5051838;28;20232;-76
2022/05/09 11:58:03;;;;;;;6.88;5.85;;;22.90;88.70;;;;;;5069778;28;20201;-76
2022/05/09 12:00:51;;;;;;;6.40;5.80;;;23.10;88.60;;;;;;5068586;28;20551;-76
2022/05/09 12:04:02;;;;;;;7.70;6.00;;;22.70;87.50;;;;;;5052887;28;20212;-76
2022/05/09 12:06:42;;;;;;;6.20;5.60;;;22.50;90.20;;;;;;5067765;28;20221;-76
2022/05/09 12:09:13;;;;;;;6.15;5.50;;;23.00;88.40;;;;;;5068895;28;20209;-76
2022/05/09 12:11:57;;;;;;;7.32;5.28;;;23.40;85.00;;;;;;5058681;28;20630;-76
2022/05/09 12:14:47;;;;;;;14.93;6.50;;;23.80;84.70;;;;;;5068750;28;20194;-76
2022/05/09 12:17:35;;;;;;;8.18;5.93;;;23.50;83.20;;;;;;5051039;28;20190;-76
2022/05/09 12:20:07;;;;;;;6.60;5.40;;;23.10;84.00;;;;;;5070787;28;20193;-79
2022/05/09 12:22:40;;;;;;;6.78;6.18;;;23.40;83.70;;;;;;5068920;28;20239;-80
2022/05/09 12:25:10;;;;;;;7.63;6.43;;;23.40;80.90;;;;;;5070646;28;20225;-82
2022/05/09 12:28:03;;;;;;;8.43;5.72;;;23.70;79.60;;;;;;5067759;28;20201;-81
2022/05/09 12:30:44;;;;;;;6.93;6.10;;;23.90;81.20;;;;;;5070972;28;20209;-81
2022/05/09 12:33:21;;;;;;;7.75;5.85;;;23.60;79.70;;;;;;5072391;28;20198;-81
2022/05/09 12:35:56;;;;;;;7.95;5.82;;;23.30;80.00;;;;;;5072192;28;20217;-81
2022/05/09 12:38:26;;;;;;;8.13;6.00;;;23.40;78.20;;;;;;5065574;28;20212;-81
2022/05/09 12:41:05;;;;;;;5.95;5.35;;;23.40;79.30;;;;;;5049577;28;20210;-81
2022/05/09 12:43:40;;;;;;;7.45;6.22;;;24.00;80.00;;;;;;5049807;28;20213;-81
2022/05/09 12:46:18;;;;;;;7.40;6.03;;;24.30;77.80;;;;;;5055371;28;20218;-81
2022/05/09 12:48:46;;;;;;;5.75;4.55;;;24.40;77.00;;;;;;5065623;28;20193;-81
2022/05/09 12:51:14;;;;;;;9.35;5.38;;;24.60;77.80;;;;;;5059569;28;20205;-81
2022/05/09 12:53:43;;;;;;;6.60;5.93;;;24.30;75.60;;;;;;5049638;28;20213;-81
2022/05/09 12:56:16;;;;;;;6.22;5.35;;;24.40;77.10;;;;;;5059285;28;20222;-82
2022/05/09 12:58:46;;;;;;;6.25;5.65;;;25.20;75.80;;;;;;5050176;28;20209;-81
2022/05/09 13:01:19;;;;;;;5.45;4.95;;;24.80;77.20;;;;;;5068378;28;20219;-81
2022/05/09 13:03:51;;;;;;;5.97;4.78;;;24.40;76.70;;;;;;5062258;28;20667;-81
2022/05/09 13:06:21;;;;;;;5.30;4.82;;;24.70;73.90;;;;;;5064042;28;20220;-81
2022/05/09 13:08:49;;;;;;;7.45;5.00;;;24.70;73.80;;;;;;5064115;28;20202;-81
2022/05/09 13:11:22;;;;;;;5.95;5.30;;;25.10;71.00;;;;;;5066115;28;20190;-81
2022/05/09 13:14:03;;;;;;;6.47;5.00;;;25.00;68.10;;;;;;5047025;28;20202;-81
2022/05/09 13:16:36;;;;;;;6.35;4.43;;;25.30;67.20;;;;;;5069352;28;20217;-81
2022/05/09 13:19:07;;;;;;;6.18;5.15;;;25.00;68.90;;;;;;5049834;28;20197;-81
2022/05/09 13:21:40;;;;;;;5.50;4.80;;;24.70;68.60;;;;;;5065362;28;20218;-81
2022/05/09 13:24:23;;;;;;;5.15;4.57;;;25.20;67.20;;;;;;5066536;28;20883;-81
2022/05/09 13:26:53;;;;;;;4.55;4.15;;;25.40;65.30;;;;;;5050705;28;20213;-81
2022/05/09 13:29:27;;;;;;;5.30;4.10;;;25.30;64.20;;;;;;5068211;28;20201;-81